Time;durP1;ratioP1;P1;durP2;ratioP2;P2;SDS_P1;SDS_P2;PMS_P1;PMS_P2;Temp;Humidity;BMP_temperature;BMP_pressure;BME280_temperature;BME280_humidity;BME280_pressure;Samples;Min_cycle;Max_cycle;Signal;HPM_P1;HPM_P2
2023/05/28 00:01:57;;;;;;;5.60;4.90;;;;;;;15.54;96.56;94742.72;5061528;28;20170;-80
2023/05/28 00:04:24;;;;;;;5.90;4.18;;;;;;;15.62;96.45;94745.75;5069844;28;20193;-80
2023/05/28 00:06:52;;;;;;;4.40;3.88;;;;;;;15.33;96.40;94699.94;5053259;28;20186;-80
2023/05/28 00:09:18;;;;;;;6.10;4.55;;;;;;;15.67;96.22;94750.31;5061311;28;20183;-80
2023/05/28 00:11:44;;;;;;;9.05;5.05;;;;;;;15.65;96.54;94744.47;5071315;28;20430;-80
2023/05/28 00:14:09;;;;;;;6.13;4.50;;;;;;;15.65;96.12;94749.78;5059167;28;20222;-80
2023/05/28 00:16:37;;;;;;;6.25;4.38;;;;;;;15.53;96.25;94733.09;5069428;28;20206;-80
2023/05/28 00:19:03;;;;;;;8.07;4.68;;;;;;;15.66;96.34;94751.34;5064300;28;20196;-80
2023/05/28 00:21:29;;;;;;;6.43;4.80;;;;;;;15.61;96.18;94746.00;5057226;28;20194;-80
2023/05/28 00:23:54;;;;;;;7.10;4.57;;;;;;;15.56;96.41;94754.69;5062745;28;20171;-81
2023/05/28 00:26:20;;;;;;;8.80;4.90;;;;;;;15.27;97.10;94700.91;5059302;28;20714;-80
2023/05/28 00:28:45;;;;;;;6.20;4.40;;;;;;;15.48;97.23;94736.47;5059814;28;20427;-80
2023/05/28 00:31:11;;;;;;;8.20;5.50;;;;;;;15.08;97.21;94713.63;5062919;28;20418;-80
2023/05/28 00:33:37;;;;;;;9.07;4.87;;;;;;;15.08;98.24;94734.84;5063672;28;20444;-80
2023/05/28 00:36:02;;;;;;;6.28;4.70;;;;;;;14.91;98.98;94717.31;5061939;28;20409;-80
2023/05/28 00:38:28;;;;;;;6.23;4.83;;;;;;;14.94;98.88;94711.56;5064297;28;20410;-80
2023/05/28 00:40:54;;;;;;;6.83;4.47;;;;;;;15.13;97.79;94728.03;5063553;28;20444;-80
2023/05/28 00:43:20;;;;;;;4.72;3.80;;;;;;;15.01;96.74;94702.38;5061124;28;20265;-80
2023/05/28 00:45:48;;;;;;;5.82;4.60;;;;;;;15.06;96.87;94718.34;5057343;28;20462;-80
2023/05/28 00:48:14;;;;;;;7.30;4.15;;;;;;;15.23;95.90;94731.59;5055750;28;20255;-80
2023/05/28 00:50:41;;;;;;;5.00;4.05;;;;;;;15.22;95.30;94726.56;5063155;28;20496;-80
2023/05/28 00:53:07;;;;;;;5.97;3.97;;;;;;;15.25;94.90;94728.72;5064550;28;20438;-80
2023/05/28 00:55:34;;;;;;;5.40;3.40;;;;;;;15.31;94.80;94725.09;5063147;28;20259;-80
2023/05/28 00:58:05;;;;;;;6.13;3.42;;;;;;;15.31;94.54;94731.19;5063493;28;20269;-80
2023/05/28 01:00:35;;;;;;;4.45;3.60;;;;;;;15.34;95.06;94728.06;5061765;28;20658;-80
2023/05/28 01:03:01;;;;;;;4.60;3.97;;;;;;;15.38;95.51;94734.50;5066215;28;20166;-81
2023/05/28 01:05:28;;;;;;;4.35;3.55;;;;;;;15.38;95.69;94715.94;5072421;28;20174;-81
2023/05/28 01:07:54;;;;;;;4.90;3.55;;;;;;;15.33;95.80;94718.50;5068277;28;20669;-81
2023/05/28 01:10:19;;;;;;;6.70;3.67;;;;;;;15.41;95.83;94718.09;5060665;28;20213;-81
2023/05/28 01:12:45;;;;;;;5.68;4.35;;;;;;;15.35;95.78;94711.09;5061546;28;20644;-81
2023/05/28 01:15:11;;;;;;;6.55;3.45;;;;;;;15.35;96.48;94713.75;5060134;28;20226;-81
2023/05/28 01:17:38;;;;;;;4.60;3.40;;;;;;;15.23;96.40;94689.19;5060630;28;20168;-81
2023/05/28 01:20:10;;;;;;;4.55;3.67;;;;;;;15.36;96.81;94710.06;5063363;28;20199;-80
2023/05/28 01:22:45;;;;;;;3.95;3.55;;;;;;;15.26;97.15;94688.69;5072207;28;20147;-80
2023/05/28 01:25:12;;;;;;;5.50;3.97;;;;;;;15.36;97.17;94699.47;5071628;28;20979;-81
2023/05/28 01:27:41;;;;;;;4.80;4.10;;;;;;;15.38;96.95;94693.91;5071846;28;20177;-81
2023/05/28 01:30:12;;;;;;;9.90;5.15;;;;;;;15.38;96.92;94697.38;5072486;28;20151;-80
2023/05/28 01:32:40;;;;;;;5.32;3.50;;;;;;;15.25;96.86;94678.31;5072044;28;20179;-81
2023/05/28 01:35:08;;;;;;;4.72;3.67;;;;;;;15.19;96.85;94666.06;5068431;28;20550;-80
2023/05/28 01:37:37;;;;;;;5.15;3.60;;;;;;;15.32;97.06;94700.16;5060240;28;20260;-81
2023/05/28 01:40:03;;;;;;;4.00;3.60;;;;;;;15.24;96.95;94689.97;5061092;28;20565;-80
2023/05/28 01:42:31;;;;;;;5.70;3.25;;;;;;;15.31;97.23;94704.66;5059644;28;20634;-81
2023/05/28 01:44:57;;;;;;;6.50;3.47;;;;;;;15.32;97.40;94708.13;5067997;28;20170;-80
2023/05/28 01:47:23;;;;;;;5.15;3.45;;;;;;;15.25;97.18;94704.84;5072284;28;20563;-80
2023/05/28 01:49:49;;;;;;;3.90;3.50;;;;;;;15.27;97.09;94698.25;5055796;28;20155;-80
2023/05/28 01:52:15;;;;;;;3.60;3.30;;;;;;;15.19;96.94;94679.31;5055434;28;20194;-80
2023/05/28 01:54:40;;;;;;;4.55;3.55;;;;;;;15.28;96.75;94689.28;5055830;28;20159;-80
2023/05/28 01:57:06;;;;;;;6.72;3.95;;;;;;;15.20;97.32;94683.56;5054945;28;20403;-80
2023/05/28 01:59:32;;;;;;;4.40;3.75;;;;;;;15.22;97.79;94692.88;5055534;28;20171;-80
2023/05/28 02:01:58;;;;;;;4.05;3.65;;;;;;;15.25;97.59;94697.69;5063925;28;20155;-80
2023/05/28 02:04:24;;;;;;;3.97;3.45;;;;;;;15.22;97.38;94676.19;5064148;28;20186;-80
2023/05/28 02:06:50;;;;;;;4.30;3.60;;;;;;;15.27;97.47;94692.16;5071897;28;20179;-80
2023/05/28 02:09:16;;;;;;;6.47;3.97;;;;;;;15.29;97.94;94693.53;5070861;28;20192;-81
2023/05/28 02:11:41;;;;;;;5.57;4.20;;;;;;;14.98;97.83;94659.66;5074459;28;20452;-80
2023/05/28 02:14:07;;;;;;;5.28;4.22;;;;;;;15.05;97.64;94666.38;5075199;28;20155;-80
2023/05/28 02:16:32;;;;;;;6.00;4.15;;;;;;;15.16;97.90;94690.41;5065832;28;20433;-80
2023/05/28 02:19:00;;;;;;;10.65;3.65;;;;;;;15.19;98.34;94698.69;5063707;28;20175;-80
2023/05/28 02:21:26;;;;;;;4.05;3.65;;;;;;;15.14;98.08;94697.78;5063423;28;20167;-80
2023/05/28 02:23:51;;;;;;;5.07;3.70;;;;;;;14.88;98.79;94675.38;5063199;28;20664;-80
2023/05/28 02:26:20;;;;;;;6.93;4.32;;;;;;;14.93;98.91;94686.09;5063174;28;20171;-80
2023/05/28 02:28:46;;;;;;;6.55;4.95;;;;;;;14.76;98.48;94656.13;5055505;28;20183;-81
2023/05/28 02:31:12;;;;;;;7.97;6.10;;;;;;;15.07;98.69;94698.75;5063042;28;20569;-80
2023/05/28 02:33:39;;;;;;;10.38;6.60;;;;;;;14.91;98.25;94666.97;5062047;28;20218;-80
2023/05/28 02:36:06;;;;;;;9.48;6.53;;;;;;;15.22;98.38;94697.41;5053362;28;20262;-81
2023/05/28 02:38:32;;;;;;;9.35;5.78;;;;;;;15.14;98.11;94682.69;5054912;28;20182;-81
2023/05/28 02:40:57;;;;;;;5.90;4.80;;;;;;;15.12;98.08;94699.91;5053875;28;20478;-81
2023/05/28 02:43:23;;;;;;;5.50;4.13;;;;;;;15.03;97.41;94679.09;5054825;28;20182;-81
2023/05/28 02:45:48;;;;;;;3.72;3.30;;;;;;;15.15;96.83;94696.75;5064951;28;20604;-81
2023/05/28 02:48:14;;;;;;;4.82;3.72;;;;;;;15.17;96.88;94695.47;5065701;28;20174;-81
2023/05/28 02:50:39;;;;;;;5.05;3.95;;;;;;;15.25;97.23;94687.09;5065040;28;20678;-80
2023/05/28 02:53:05;;;;;;;4.55;3.72;;;;;;;15.06;97.55;94661.88;5066286;28;20590;-81
2023/05/28 02:55:30;;;;;;;6.75;4.30;;;;;;;15.24;97.68;94695.28;5074641;28;20230;-81
2023/05/28 02:57:55;;;;;;;4.30;3.63;;;;;;;15.32;97.80;94705.47;5074330;28;20626;-81
2023/05/28 03:00:21;;;;;;;4.43;3.83;;;;;;;15.33;97.95;94702.59;5074548;28;20242;-81
2023/05/28 03:02:47;;;;;;;8.13;4.70;;;;;;;14.91;98.32;94653.72;5074128;28;20409;-80
2023/05/28 03:05:12;;;;;;;5.85;5.05;;;;;;;15.08;99.51;94703.03;5061485;28;20422;-81
2023/05/28 03:07:38;;;;;;;5.03;4.20;;;;;;;15.17;99.40;94700.75;5062816;28;20331;-81
2023/05/28 03:10:04;;;;;;;5.18;4.45;;;;;;;15.22;99.33;94702.72;5062287;28;20617;-81
2023/05/28 03:12:29;;;;;;;6.05;4.30;;;;;;;15.15;98.91;94675.53;5062455;28;20281;-81
2023/05/28 03:14:55;;;;;;;8.23;5.30;;;;;;;14.98;99.46;94655.16;5061253;28;20610;-81
2023/05/28 03:17:20;;;;;;;5.60;4.70;;;;;;;15.33;99.27;94705.25;5065256;28;20401;-81
2023/05/28 03:19:45;;;;;;;4.70;4.03;;;;;;;15.36;99.52;94703.97;5065501;28;20174;-80
2023/05/28 03:22:11;;;;;;;7.00;4.50;;;;;;;15.31;99.31;94695.91;5063974;28;20166;-81
2023/05/28 03:24:39;;;;;;;7.20;4.63;;;;;;;15.42;99.45;94706.44;5066700;28;20205;-81
2023/05/28 03:27:05;;;;;;;4.63;4.13;;;;;;;15.44;99.69;94703.53;5073760;28;20158;-80
2023/05/28 03:29:31;;;;;;;10.10;5.28;;;;;;;15.29;99.62;94677.63;5073619;28;20729;-80
2023/05/28 03:31:56;;;;;;;10.10;5.60;;;;;;;15.46;99.63;94704.91;5073158;28;20520;-80
2023/05/28 03:34:23;;;;;;;7.68;4.85;;;;;;;15.50;99.15;94697.25;5065388;28;20203;-80
2023/05/28 03:36:49;;;;;;;8.07;5.47;;;;;;;15.18;98.57;94669.75;5064725;28;20409;-81
2023/05/28 03:39:14;;;;;;;5.82;5.22;;;;;;;15.45;98.65;94707.81;5062088;28;20179;-80
2023/05/28 03:41:40;;;;;;;6.53;5.10;;;;;;;15.36;98.26;94677.44;5061639;28;20177;-80
2023/05/28 03:44:06;;;;;;;6.38;5.32;;;;;;;15.54;97.99;94711.69;5061820;28;20175;-80
2023/05/28 03:46:31;;;;;;;6.15;4.20;;;;;;;15.30;97.84;94662.50;5063348;28;20178;-80
2023/05/28 03:48:57;;;;;;;5.57;4.13;;;;;;;15.56;97.88;94703.47;5068893;28;20186;-80
2023/05/28 03:51:26;;;;;;;5.85;4.40;;;;;;;15.60;97.75;94701.91;5060608;28;20675;-81
2023/05/28 03:53:52;;;;;;;4.93;4.30;;;;;;;15.63;97.53;94701.44;5053344;28;20705;-82
2023/05/28 03:56:19;;;;;;;7.03;4.72;;;;;;;15.45;97.14;94703.31;5060805;28;20403;-81
2023/05/28 03:58:45;;;;;;;10.32;5.47;;;;;;;15.42;97.19;94709.09;5071080;28;20483;-82
2023/05/28 04:01:10;;;;;;;8.73;4.72;;;;;;;15.36;97.59;94688.84;5073023;28;20220;-84
2023/05/28 04:03:36;;;;;;;7.35;5.30;;;;;;;15.56;97.37;94709.59;5072537;28;20155;-82
2023/05/28 04:06:02;;;;;;;5.82;5.22;;;;;;;15.62;98.15;94707.78;5072132;28;20493;-84
2023/05/28 04:08:28;;;;;;;6.28;4.65;;;;;;;15.41;98.29;94673.00;5072878;28;20190;-84
2023/05/28 04:10:53;;;;;;;8.60;5.40;;;;;;;15.55;98.84;94678.00;5073178;28;20158;-84
2023/05/28 04:13:19;;;;;;;8.73;5.85;;;;;;;15.82;98.78;94708.88;5073038;28;20186;-84
2023/05/28 04:15:44;;;;;;;9.02;6.20;;;;;;;15.87;98.45;94709.97;5071305;28;20707;-84
2023/05/28 04:18:09;;;;;;;8.15;6.40;;;;;;;15.85;97.96;94703.03;5072746;28;20162;-84
2023/05/28 04:20:38;;;;;;;10.68;6.88;;;;;;;15.73;98.28;94680.34;5072694;28;20155;-84
2023/05/28 04:23:03;;;;;;;6.85;5.88;;;;;;;16.01;98.08;94727.13;5072812;28;20194;-84
2023/05/28 04:25:28;;;;;;;6.93;5.75;;;;;;;16.00;97.85;94720.22;5073175;28;20185;-85
2023/05/28 04:27:55;;;;;;;9.63;6.20;;;;;;;15.83;97.44;94688.41;5072531;28;20971;-84
2023/05/28 04:30:23;;;;;;;7.35;5.70;;;;;;;15.89;97.02;94699.91;5072580;28;20159;-84
2023/05/28 04:32:52;;;;;;;6.35;5.35;;;;;;;15.91;97.48;94711.09;5072693;28;20195;-84
2023/05/28 04:35:18;;;;;;;8.68;5.75;;;;;;;15.97;97.60;94715.41;5072600;28;20401;-83
2023/05/28 04:37:44;;;;;;;7.90;5.93;;;;;;;16.02;97.76;94718.09;5063823;28;20170;-84
2023/05/28 04:40:14;;;;;;;6.88;5.47;;;;;;;15.86;98.00;94693.22;5055281;28;20179;-85
2023/05/28 04:42:40;;;;;;;7.00;5.50;;;;;;;16.06;97.96;94722.69;5062429;28;20561;-85
2023/05/28 04:45:09;;;;;;;7.07;5.80;;;;;;;16.10;98.14;94726.44;5063727;28;20658;-83
2023/05/28 04:47:36;;;;;;;7.53;5.05;;;;;;;16.09;98.29;94719.53;5071136;28;20170;-84
2023/05/28 04:50:04;;;;;;;8.85;5.35;;;;;;;15.95;98.32;94685.63;5072145;28;20169;-85
2023/05/28 04:52:31;;;;;;;8.75;5.47;;;;;;;15.76;98.69;94659.41;5072019;28;20617;-84
2023/05/28 04:54:57;;;;;;;8.55;5.90;;;;;;;15.65;99.24;94664.84;5072127;28;20167;-83
2023/05/28 04:57:22;;;;;;;8.35;6.22;;;;;;;16.04;99.94;94721.31;5072428;28;20242;-83
2023/05/28 04:59:49;;;;;;;7.80;6.47;;;;;;;16.13;100.00;94727.81;5072717;28;20155;-83
2023/05/28 05:02:16;;;;;;;6.85;6.15;;;;;;;16.12;100.00;94713.72;5072364;28;20165;-83
2023/05/28 05:04:42;;;;;;;8.32;5.90;;;;;;;16.14;99.93;94708.97;5063074;28;20171;-83
2023/05/28 05:07:07;;;;;;;9.90;5.40;;;;;;;16.17;98.97;94691.75;5064015;28;20179;-83
2023/05/28 05:09:33;;;;;;;8.05;5.82;;;;;;;16.20;98.72;94699.19;5060686;28;20660;-83
2023/05/28 05:11:58;;;;;;;9.23;5.97;;;;;;;16.18;98.67;94691.47;5063666;28;20212;-89
2023/05/28 05:14:24;;;;;;;7.25;5.78;;;;;;;16.10;98.57;94665.34;5060514;28;20646;-90
2023/05/28 05:16:49;;;;;;;7.32;5.85;;;;;;;16.33;98.70;94698.81;5065034;28;20269;-84
2023/05/28 05:19:15;;;;;;;27.30;19.45;;;;;;;16.51;98.74;94716.28;5069083;28;20178;-84
2023/05/28 05:21:40;;;;;;;17.48;12.80;;;;;;;16.53;98.93;94719.47;5057507;28;20561;-84
2023/05/28 05:24:06;;;;;;;13.13;8.18;;;;;;;16.60;98.49;94720.09;5070943;28;20213;-85
2023/05/28 05:26:31;;;;;;;28.63;18.27;;;;;;;16.64;98.34;94715.09;5063889;28;20174;-86
2023/05/28 05:28:56;;;;;;;9.43;6.28;;;;;;;16.60;98.11;94709.44;5058807;28;20155;-86
2023/05/28 05:31:22;;;;;;;16.55;11.82;;;;;;;16.54;97.41;94691.84;5058532;28;20258;-88
2023/05/28 05:33:47;;;;;;;11.95;8.05;;;;;;;16.48;97.71;94693.66;5057052;28;20256;-86
2023/05/28 05:36:13;;;;;;;31.95;20.08;;;;;;;16.35;97.95;94659.50;5058364;28;20654;-86
2023/05/28 05:38:38;;;;;;;16.63;12.20;;;;;;;16.80;97.41;94716.81;5058395;28;20250;-86
2023/05/28 05:41:03;;;;;;;18.92;13.25;;;;;;;16.89;96.47;94723.28;5058186;28;20650;-86
2023/05/28 05:43:29;;;;;;;17.98;12.38;;;;;;;16.76;95.95;94674.00;5063537;28;20159;-84
2023/05/28 05:45:54;;;;;;;15.70;10.73;;;;;;;17.09;94.23;94727.97;5065619;28;20410;-81
2023/05/28 05:48:20;;;;;;;24.45;16.27;;;;;;;17.08;93.60;94711.22;5066711;28;20172;-82
2023/05/28 05:50:54;;;;;;;28.02;19.50;;;;;;;17.26;93.72;94724.13;5068012;28;20540;-82
2023/05/28 05:53:21;;;;;;;14.88;10.23;;;;;;;17.29;93.19;94722.81;5078518;28;20220;-84
2023/05/28 05:55:46;;;;;;;10.82;8.30;;;;;;;17.31;91.91;94721.50;5078887;28;20162;-82
2023/05/28 05:58:11;;;;;;;8.75;6.50;;;;;;;17.38;91.09;94723.16;5078210;28;20174;-85
2023/05/28 06:00:38;;;;;;;8.27;4.53;;;;;;;17.33;87.53;94719.38;5074000;28;20690;-81
2023/05/28 06:03:03;;;;;;;6.80;4.50;;;;;;;17.35;87.84;94727.13;5069174;28;20166;-82
2023/05/28 06:05:29;;;;;;;7.38;4.75;;;;;;;17.18;86.11;94707.84;5071741;28;20680;-81
2023/05/28 06:07:55;;;;;;;4.93;3.88;;;;;;;17.16;85.60;94718.72;5068188;28;20186;-81
2023/05/28 06:10:20;;;;;;;5.20;4.28;;;;;;;17.16;86.25;94731.22;5065286;28;20299;-80
2023/05/28 06:12:46;;;;;;;6.75;4.97;;;;;;;17.15;86.96;94733.06;5078003;28;20763;-82
2023/05/28 06:15:11;;;;;;;7.20;4.95;;;;;;;17.08;88.59;94731.69;5069586;28;20295;-80
2023/05/28 06:17:37;;;;;;;8.77;4.63;;;;;;;17.04;87.75;94731.38;5075088;28;20245;-80
2023/05/28 06:20:06;;;;;;;9.00;4.95;;;;;;;17.01;88.05;94737.22;5056852;28;20167;-81
2023/05/28 06:22:32;;;;;;;7.50;5.47;;;;;;;16.97;87.97;94728.94;5066491;28;20246;-80
2023/05/28 06:24:57;;;;;;;5.10;4.57;;;;;;;16.81;88.81;94700.63;5055321;28;20257;-81
2023/05/28 06:27:23;;;;;;;6.43;4.82;;;;;;;17.04;88.05;94725.28;5072703;28;20184;-82
2023/05/28 06:29:48;;;;;;;6.13;4.80;;;;;;;17.06;87.85;94739.13;5074652;28;20170;-82
2023/05/28 06:32:14;;;;;;;7.55;4.57;;;;;;;17.03;89.84;94735.13;5074564;28;20578;-83
2023/05/28 06:34:40;;;;;;;8.30;5.10;;;;;;;16.96;90.76;94727.34;5075043;28;20159;-82
2023/05/28 06:37:06;;;;;;;7.07;5.60;;;;;;;16.79;91.54;94697.41;5074593;28;20163;-82
2023/05/28 06:39:32;;;;;;;11.30;6.07;;;;;;;16.65;91.06;94682.94;5074652;28;20517;-82
2023/05/28 06:41:57;;;;;;;10.50;5.78;;;;;;;17.04;92.38;94736.69;5073218;28;20267;-82
2023/05/28 06:44:22;;;;;;;7.53;5.38;;;;;;;17.01;93.39;94733.78;5074272;28;20600;-82
2023/05/28 06:46:48;;;;;;;9.65;5.50;;;;;;;17.08;94.33;94737.81;5074674;28;20150;-82
2023/05/28 06:49:13;;;;;;;11.50;5.95;;;;;;;16.80;93.99;94696.34;5065196;28;20565;-82
2023/05/28 06:51:39;;;;;;;8.68;6.25;;;;;;;17.06;92.75;94742.56;5066866;28;20158;-82
2023/05/28 06:54:04;;;;;;;8.73;6.03;;;;;;;16.96;92.38;94732.66;5060978;28;20189;-82
2023/05/28 06:56:30;;;;;;;7.88;5.65;;;;;;;17.10;92.20;94743.69;5068588;28;20657;-82
2023/05/28 06:58:55;;;;;;;7.53;5.95;;;;;;;17.11;91.38;94747.97;5074261;28;20182;-82
2023/05/28 07:01:21;;;;;;;7.32;5.32;;;;;;;17.11;91.62;94747.16;5063696;28;20179;-82
2023/05/28 07:03:46;;;;;;;11.88;6.40;;;;;;;17.14;92.61;94744.78;5067343;28;20741;-82
2023/05/28 07:06:12;;;;;;;9.95;6.82;;;;;;;17.09;93.03;94735.97;5054331;28;20175;-82
2023/05/28 07:08:41;;;;;;;15.52;6.38;;;;;;;17.15;92.30;94737.59;5053999;28;20202;-83
2023/05/28 07:11:08;;;;;;;8.63;6.82;;;;;;;16.81;93.20;94684.66;5054035;28;20155;-83
2023/05/28 07:13:33;;;;;;;7.45;6.20;;;;;;;17.30;94.75;94735.84;5053780;28;20183;-83
2023/05/28 07:15:59;;;;;;;8.88;6.10;;;;;;;17.39;94.40;94744.16;5053941;28;20227;-83
2023/05/28 07:18:24;;;;;;;10.15;7.07;;;;;;;17.29;93.44;94744.09;5053972;28;20163;-83
2023/05/28 07:20:50;;;;;;;9.30;6.40;;;;;;;17.34;94.16;94736.16;5053754;28;20632;-83
2023/05/28 07:23:15;;;;;;;8.63;6.35;;;;;;;17.50;94.66;94743.19;5054036;28;20528;-83
2023/05/28 07:25:42;;;;;;;8.45;6.10;;;;;;;17.64;94.83;94741.69;5053716;28;20167;-82
2023/05/28 07:28:07;;;;;;;9.00;6.22;;;;;;;17.82;94.15;94737.78;5053742;28;20250;-82
2023/05/28 07:30:33;;;;;;;10.07;6.45;;;;;;;18.00;91.85;94741.88;5053411;28;20257;-83
2023/05/28 07:32:58;;;;;;;9.45;6.22;;;;;;;18.05;90.86;94736.59;5064353;28;20593;-82
2023/05/28 07:35:23;;;;;;;8.88;6.45;;;;;;;18.18;90.86;94741.44;5058771;28;20175;-81
2023/05/28 07:37:49;;;;;;;7.88;6.05;;;;;;;18.25;91.58;94741.97;5052367;28;20194;-81
2023/05/28 07:40:15;;;;;;;6.38;5.15;;;;;;;18.25;87.79;94739.31;5061690;28;20166;-81
2023/05/28 07:42:41;;;;;;;8.00;6.10;;;;;;;18.33;87.82;94738.84;5057800;28;20685;-81
2023/05/28 07:45:07;;;;;;;7.55;5.10;;;;;;;18.44;87.83;94739.66;5060102;28;20171;-82
2023/05/28 07:47:33;;;;;;;9.00;5.18;;;;;;;18.28;87.80;94706.81;5062413;28;20178;-82
2023/05/28 07:49:58;;;;;;;7.30;4.25;;;;;;;18.45;86.69;94726.06;5062070;28;20285;-82
2023/05/28 07:52:25;;;;;;;6.15;3.83;;;;;;;18.59;86.19;94736.28;5058205;28;20327;-81
2023/05/28 07:54:51;;;;;;;3.47;3.00;;;;;;;18.31;85.25;94687.66;5071693;28;20185;-82
2023/05/28 07:57:17;;;;;;;2.97;2.65;;;;;;;18.46;82.65;94733.00;5057561;28;20179;-81
2023/05/28 07:59:42;;;;;;;3.75;3.00;;;;;;;18.33;82.92;94735.38;5066569;28;20178;-81
2023/05/28 08:02:07;;;;;;;3.60;2.90;;;;;;;18.15;84.00;94735.84;5073287;28;20154;-82
2023/05/28 08:04:33;;;;;;;3.28;2.70;;;;;;;18.02;83.62;94737.09;5067036;28;20932;-83
2023/05/28 08:06:58;;;;;;;2.65;2.45;;;;;;;17.79;84.21;94727.69;5058645;28;20174;-82
2023/05/28 08:09:23;;;;;;;4.18;2.63;;;;;;;17.78;84.76;94727.94;5065136;28;20202;-82
2023/05/28 08:11:49;;;;;;;4.03;2.80;;;;;;;17.72;85.61;94727.13;5063097;28;20181;-82
2023/05/28 08:14:15;;;;;;;2.42;2.17;;;;;;;17.48;85.68;94683.25;5066872;28;20194;-85
2023/05/28 08:16:40;;;;;;;2.88;2.58;;;;;;;17.73;84.98;94712.72;5061991;28;20211;-80
2023/05/28 08:19:06;;;;;;;9.15;3.00;;;;;;;17.96;85.81;94733.63;5059891;28;20594;-88
2023/05/28 08:21:31;;;;;;;2.60;2.38;;;;;;;17.84;85.38;94700.25;5063844;28;20217;-85
2023/05/28 08:23:57;;;;;;;3.35;2.83;;;;;;;17.64;85.90;94667.13;5061883;28;20189;-83
2023/05/28 08:26:22;;;;;;;4.72;2.90;;;;;;;18.21;85.75;94727.59;5059465;28;20167;-81
2023/05/28 08:28:48;;;;;;;3.55;2.70;;;;;;;18.05;84.56;94704.63;5066546;28;20170;-83
2023/05/28 08:31:13;;;;;;;7.30;3.15;;;;;;;18.32;83.92;94731.91;5062263;28;20167;-80
2023/05/28 08:33:38;;;;;;;7.20;3.03;;;;;;;18.36;84.04;94732.97;5059360;28;20194;-81
2023/05/28 08:36:04;;;;;;;9.75;3.05;;;;;;;18.36;83.44;94743.63;5071880;28;20263;-84
2023/05/28 08:38:29;;;;;;;4.20;2.83;;;;;;;17.97;83.58;94681.16;5060986;28;20176;-83
2023/05/28 08:40:56;;;;;;;4.40;2.33;;;;;;;18.30;82.79;94735.88;5051624;28;20182;-84
2023/05/28 08:43:22;;;;;;;6.40;2.20;;;;;;;18.07;83.49;94689.19;5068119;28;20645;-83
2023/05/28 08:45:50;;;;;;;2.95;2.33;;;;;;;18.44;83.29;94735.13;5068100;28;20179;-84
2023/05/28 08:48:16;;;;;;;4.18;2.55;;;;;;;18.39;83.36;94731.66;5052057;28;20643;-84
2023/05/28 08:50:47;;;;;;;3.95;2.33;;;;;;;18.40;82.64;94743.91;5049149;28;20189;-84
2023/05/28 08:53:16;;;;;;;3.70;2.47;;;;;;;18.36;81.99;94738.31;5062988;28;20240;-83
2023/05/28 08:55:44;;;;;;;4.22;2.65;;;;;;;18.37;82.37;94747.91;5049311;28;20170;-85
2023/05/28 08:58:10;;;;;;;4.82;2.38;;;;;;;18.02;82.33;94700.59;5062434;28;20171;-85
2023/05/28 09:00:37;;;;;;;3.60;2.72;;;;;;;18.30;82.57;94747.34;5058681;28;20193;-86
2023/05/28 09:03:07;;;;;;;5.00;2.45;;;;;;;18.39;83.04;94737.78;5061922;28;20240;-86
2023/05/28 09:05:36;;;;;;;4.05;2.50;;;;;;;18.58;83.43;94724.81;5060945;28;20179;-85
2023/05/28 09:08:06;;;;;;;4.55;2.10;;;;;;;18.81;81.44;94721.63;5064640;28;20178;-84
2023/05/28 09:10:32;;;;;;;6.28;3.40;;;;;;;19.06;81.36;94730.72;5069809;28;20174;-85
2023/05/28 09:12:59;;;;;;;3.10;2.25;;;;;;;18.97;79.81;94695.75;5059165;28;20281;-88
2023/05/28 09:15:24;;;;;;;4.07;2.50;;;;;;;18.90;78.89;94675.75;5061585;28;20736;-87
2023/05/28 09:17:50;;;;;;;3.53;2.53;;;;;;;18.98;79.44;94678.69;5059047;28;20170;-86
2023/05/28 09:20:15;;;;;;;2.65;2.05;;;;;;;19.60;80.12;94725.66;5066092;28;20614;-87
2023/05/28 09:22:43;;;;;;;5.43;2.72;;;;;;;19.61;79.94;94697.88;5049753;28;20650;-86
2023/05/28 09:25:08;;;;;;;4.55;2.90;;;;;;;19.29;77.66;94636.75;5051915;28;20209;-85
2023/05/28 09:27:36;;;;;;;2.80;2.30;;;;;;;19.89;76.58;94726.63;5049064;28;20199;-86
2023/05/28 09:30:07;;;;;;;4.18;2.35;;;;;;;19.38;76.34;94669.03;5056103;28;20177;-85
2023/05/28 09:32:36;;;;;;;4.30;2.78;;;;;;;19.42;76.55;94694.94;5069549;28;20244;-85
2023/05/28 09:35:05;;;;;;;2.50;2.20;;;;;;;19.47;75.56;94727.00;5048287;28;20203;-85
2023/05/28 09:37:31;;;;;;;4.70;2.85;;;;;;;19.27;74.65;94736.88;5068159;28;20202;-85
2023/05/28 09:40:01;;;;;;;3.65;2.90;;;;;;;19.11;76.52;94728.06;5069348;28;20214;-85
2023/05/28 09:42:33;;;;;;;3.90;2.58;;;;;;;19.08;77.09;94726.72;5062362;28;20199;-85
2023/05/28 09:45:00;;;;;;;6.53;3.38;;;;;;;18.67;75.97;94680.56;5057423;28;20174;-85
2023/05/28 09:47:26;;;;;;;5.90;3.33;;;;;;;18.88;76.63;94734.72;5069837;28;20192;-85
2023/05/28 09:49:51;;;;;;;5.63;3.15;;;;;;;18.37;76.83;94705.25;5068267;28;20216;-85
2023/05/28 09:52:20;;;;;;;4.18;2.58;;;;;;;18.23;77.64;94698.03;5067925;28;20205;-85
2023/05/28 09:54:59;;;;;;;4.85;3.25;;;;;;;18.06;79.24;94701.72;5069817;28;20178;-85
2023/05/28 09:57:29;;;;;;;3.92;2.70;;;;;;;18.34;79.67;94745.75;5059041;28;20593;-84
2023/05/28 09:59:57;;;;;;;6.03;2.60;;;;;;;18.16;80.02;94726.78;5063558;28;20163;-85
2023/05/28 10:02:43;;;;;;;3.58;3.00;;;;;;;18.21;80.84;94724.94;5059714;28;20159;-85
2023/05/28 10:05:11;;;;;;;3.58;2.90;;;;;;;18.48;80.22;94735.41;5053379;28;20206;-85
2023/05/28 10:07:40;;;;;;;3.85;2.67;;;;;;;18.09;81.28;94637.22;5061069;28;20305;-85
2023/05/28 10:10:08;;;;;;;3.70;2.63;;;;;;;18.85;77.32;94706.69;5070074;28;20210;-85
2023/05/28 10:12:34;;;;;;;5.00;3.10;;;;;;;19.06;77.74;94680.03;5069628;28;20558;-85
2023/05/28 10:15:00;;;;;;;5.72;2.75;;;;;;;19.42;75.67;94721.63;5060992;28;20223;-85
2023/05/28 10:17:27;;;;;;;3.65;2.85;;;;;;;19.15;75.09;94689.09;5054360;28;20177;-85
2023/05/28 10:19:53;;;;;;;5.72;3.10;;;;;;;19.27;74.78;94710.97;5051614;28;20214;-86
2023/05/28 10:22:18;;;;;;;5.47;2.85;;;;;;;;;;5051341;28;20654;-85
2023/05/28 10:24:45;;;;;;;3.63;2.50;;;;;;;19.87;75.96;94731.47;5056341;28;20179;-85
2023/05/28 10:27:18;;;;;;;4.93;2.97;;;;;;;19.96;73.50;94748.56;5066581;28;20175;-85
2023/05/28 10:29:46;;;;;;;5.07;2.53;;;;;;;19.56;73.30;94700.53;5053680;28;20193;-85
2023/05/28 10:32:15;;;;;;;2.55;2.35;;;;;;;19.40;72.27;94693.59;5071199;28;20201;-85
2023/05/28 10:34:41;;;;;;;5.57;2.63;;;;;;;19.39;74.13;94732.03;5057141;28;20186;-85
2023/05/28 10:37:09;;;;;;;4.13;2.40;;;;;;;18.92;75.67;94671.75;5050778;28;20179;-86
2023/05/28 10:39:42;;;;;;;5.22;2.78;;;;;;;19.17;75.96;94690.44;5052353;28;20706;-85
2023/05/28 10:42:10;;;;;;;3.50;2.75;;;;;;;19.08;74.91;94673.34;5060173;28;20159;-85
2023/05/28 10:45:00;;;;;;;3.28;2.38;;;;;;;19.43;74.47;94719.78;5064962;28;20249;-85
2023/05/28 10:47:39;;;;;;;4.70;2.75;;;;;;;19.33;75.13;94720.59;5066924;28;20171;-85
2023/05/28 10:50:15;;;;;;;5.75;2.58;;;;;;;19.30;74.66;94718.44;5052548;28;20174;-85
2023/05/28 10:52:41;;;;;;;3.05;2.72;;;;;;;19.18;74.20;94700.03;5052297;28;20190;-85
2023/05/28 10:55:14;;;;;;;4.47;3.13;;;;;;;18.84;74.26;94678.44;5063631;28;20205;-85
2023/05/28 10:57:43;;;;;;;4.60;2.95;;;;;;;18.79;74.70;94704.28;5069037;28;20182;-83
2023/05/28 11:00:15;;;;;;;4.70;2.78;;;;;;;18.72;75.79;94709.09;5062131;28;20268;-82
2023/05/28 11:02:45;;;;;;;6.97;3.60;;;;;;;18.60;76.70;94712.00;5063595;28;20228;-80
2023/05/28 11:05:10;;;;;;;5.18;3.65;;;;;;;18.43;75.51;94712.19;5051320;28;20209;-82
2023/05/28 11:07:38;;;;;;;4.43;3.58;;;;;;;18.39;75.84;94710.31;5063713;28;20265;-81
2023/05/28 11:10:09;;;;;;;5.28;3.38;;;;;;;18.25;75.34;94703.91;5058348;28;20257;-83
2023/05/28 11:12:37;;;;;;;8.95;3.67;;;;;;;18.02;76.53;94689.94;5065263;28;20600;-84
2023/05/28 11:15:03;;;;;;;5.63;3.42;;;;;;;18.04;77.54;94679.84;5062437;28;20731;-83
2023/05/28 11:17:29;;;;;;;4.72;4.05;;;;;;;18.14;77.72;94681.75;5056431;28;20199;-82
2023/05/28 11:19:55;;;;;;;5.43;3.78;;;;;;;18.27;77.20;94701.75;5062639;28;20689;-82
2023/05/28 11:22:20;;;;;;;8.25;3.97;;;;;;;18.33;78.42;94690.06;5067593;28;20177;-81
2023/05/28 11:24:58;;;;;;;5.82;3.67;;;;;;;18.76;76.45;94684.31;5064986;28;20658;-81
2023/05/28 11:27:26;;;;;;;5.88;3.90;;;;;;;19.03;75.18;94667.22;5062169;28;20174;-82
2023/05/28 11:29:55;;;;;;;4.97;4.18;;;;;;;19.31;75.71;94673.84;5062583;28;20190;-82